Monday, October 16, 2017, 6:02 PM EDT
Back to Local

KMFD, Lahm Municipal Airport

Location: Mansfield, OH, United States Lat: 40.817
Local Time: 6:02 PM EDT (22:02 GMT) Lon: -82.517
Time Zone: US/Eastern Elev: 1295 ft

Show me the last for .
Show Decoded

2017-10-16 16:52 METAR KMFD 162052Z 32010KT 10SM BKN050 OVC070 12/01 A3027 RMK AO2 SLP252
                 T01220011 56003 =
2017-10-16 15:52 METAR KMFD 161952Z 32009KT 290V360 10SM BKN050 OVC065 14/02 A3026 RMK AO2 SLP250
                 T01440017 =
2017-10-16 14:52 METAR KMFD 161852Z 31009KT 10SM FEW045 BKN060 13/02 A3026 RMK AO2 SLP248
                 T01330022 $ =
2017-10-16 13:52 METAR KMFD 161752Z 35009KT 10SM SCT043 13/03 A3028 RMK AO2 SLP254 T01330028
                 10133 20050 58005 $ =
2017-10-16 12:52 METAR KMFD 161652Z 30007KT 10SM FEW036 12/02 A3029 RMK AO2 SLP259 T01170022 $ =
2017-10-16 11:52 METAR KMFD 161552Z 32009G14KT 10SM FEW026 SCT031 BKN048 11/03 A3029 RMK AO2
                 SLP260 T01110033 $ =
2017-10-16 11:50 METAR KMFD 161550Z 33008G14KT 10SM FEW026 SCT031 OVC048 11/04 A3029 RMK AO2 $ =
2017-10-16 11:25 METAR KMFD 161525Z 31008KT 10SM BKN024 BKN050 10/04 A3029 RMK AO2 T01000039 $ =
2017-10-16 11:09 METAR KMFD 161509Z 33007KT 10SM SCT022 SCT085 11/04 A3029 RMK AO2 T01060044 $ =
2017-10-16 10:52 METAR KMFD 161452Z 32009KT 10SM BKN019 BKN027 OVC080 09/05 A3028 RMK AO2 SLP259
                 T00940050 51010 $ =
2017-10-16 10:48 METAR KMFD 161448Z 30009KT 10SM BKN021 BKN026 OVC080 10/05 A3028 RMK AO2 $ =
2017-10-16 09:52 METAR KMFD 161352Z 32010KT 10SM OVC080 08/06 A3028 RMK AO2 SLP256 T00830056 $ =
2017-10-16 08:52 METAR KMFD 161252Z 31007KT 10SM FEW075 07/05 A3025 RMK AO2 SLP249 T00720050 $ =
2017-10-16 07:52 METAR KMFD 161152Z 28004KT 10SM CLR 05/04 A3023 RMK AO2 SLP240 T00500044 10100
                 20050 53016 $ =
2017-10-16 06:52 METAR KMFD 161052Z 29003KT 10SM CLR 06/04 A3021 RMK AO2 SLP234 T00560044 $ =
2017-10-16 05:52 METAR KMFD 160952Z AUTO 29004KT 10SM CLR 07/04 A3019 RMK AO2 SLP228 T00670044 $
                 =
2017-10-16 04:52 METAR KMFD 160852Z AUTO 30004KT 10SM BKN045 08/05 A3018 RMK AO2 SLP222 T00830050
                 52012 $ =
2017-10-16 03:52 METAR KMFD 160752Z AUTO 30007KT 10SM OVC039 09/04 A3017 RMK AO2 SLP215 T00940039
                 $ =
2017-10-16 02:52 METAR KMFD 160652Z AUTO 33010KT 10SM OVC037 09/04 A3016 RMK AO2 SLP210 T00940039
                 $ =
2017-10-16 01:52 METAR KMFD 160552Z AUTO 34009KT 10SM OVC033 10/04 A3014 RMK AO2 SLP204 T01000039
                 10128 20100 53016 $ =
2017-10-16 00:52 METAR KMFD 160452Z AUTO 34011G20KT 10SM FEW030 OVC042 10/04 A3013 RMK AO2 SLP199
                 T01000039 402560100 $ =
2017-10-15 23:52 METAR KMFD 160352Z AUTO 32013KT 10SM OVC037 11/05 A3011 RMK AO2 SLP192 T01060050
                 $ =
2017-10-15 22:52 METAR KMFD 160252Z 31011KT 10SM SCT028 BKN033 OVC040 10/06 A3009 RMK AO2 SLP187
                 T01000056 53027 $ =
2017-10-15 21:52 METAR KMFD 160152Z 29010KT 10SM SCT028 BKN033 OVC040 12/08 A3006 RMK AO2 SLP176
                 T01170083 $ =
2017-10-15 20:52 METAR KMFD 160052Z 29010G18KT 10SM FEW019 FEW028 OVC044 12/09 A3003 RMK AO2
                 SLP166 T01170089 $ =
2017-10-15 19:52 METAR KMFD 152352Z 29011G19KT 10SM BKN040 13/08 A3001 RMK AO2 SLP159 60000
                 T01280078 10233 20128 53028 $ =
2017-10-15 18:52 METAR KMFD 152252Z 28012G19KT 10SM BKN037 13/08 A2998 RMK AO2 SLP148 T01280083 $
                 =

Support USWX by starting your Amazon purchase here.